sensor_id;sensor_type;location;lat;lon;timestamp;pressure;altitude;pressure_sealevel;temperature;humidity
41250;BME280;26984;59.928;30.306;2023-02-04T00:02:02;101306.22;;;-4.37;100.00
41250;BME280;26984;59.928;30.306;2023-02-04T00:04:30;101316.94;;;-4.27;100.00
41250;BME280;26984;59.928;30.306;2023-02-04T00:06:57;101312.31;;;-4.23;100.00
41250;BME280;26984;59.928;30.306;2023-02-04T00:09:25;101324.97;;;-4.16;100.00
41250;BME280;26984;59.928;30.306;2023-02-04T00:11:52;101320.84;;;-4.20;100.00
41250;BME280;26984;59.928;30.306;2023-02-04T00:14:19;101323.25;;;-4.17;100.00
41250;BME280;26984;59.928;30.306;2023-02-04T00:16:48;101326.44;;;-4.12;100.00
41250;BME280;26984;59.928;30.306;2023-02-04T00:19:16;101331.41;;;-3.94;100.00
41250;BME280;26984;59.928;30.306;2023-02-04T00:21:43;101336.22;;;-3.88;100.00
41250;BME280;26984;59.928;30.306;2023-02-04T00:24:11;101331.16;;;-3.78;100.00
41250;BME280;26984;59.928;30.306;2023-02-04T00:26:38;101336.56;;;-3.80;100.00
41250;BME280;26984;59.928;30.306;2023-02-04T00:29:06;101338.97;;;-3.90;100.00
41250;BME280;26984;59.928;30.306;2023-02-04T00:31:33;101335.72;;;-3.80;100.00
41250;BME280;26984;59.928;30.306;2023-02-04T00:34:02;101342.25;;;-3.73;100.00
41250;BME280;26984;59.928;30.306;2023-02-04T00:36:29;101342.88;;;-3.70;100.00
41250;BME280;26984;59.928;30.306;2023-02-04T00:38:57;101347.38;;;-3.59;100.00
41250;BME280;26984;59.928;30.306;2023-02-04T00:41:24;101359.25;;;-3.53;100.00
41250;BME280;26984;59.928;30.306;2023-02-04T00:43:52;101354.41;;;-3.47;100.00
41250;BME280;26984;59.928;30.306;2023-02-04T00:46:19;101353.16;;;-3.41;100.00
41250;BME280;26984;59.928;30.306;2023-02-04T00:48:47;101356.28;;;-3.23;100.00
41250;BME280;26984;59.928;30.306;2023-02-04T00:51:16;101362.16;;;-3.20;100.00
41250;BME280;26984;59.928;30.306;2023-02-04T00:53:44;101358.66;;;-3.20;100.00
41250;BME280;26984;59.928;30.306;2023-02-04T00:56:11;101364.69;;;-3.18;100.00
41250;BME280;26984;59.928;30.306;2023-02-04T00:58:39;101358.97;;;-3.12;100.00
41250;BME280;26984;59.928;30.306;2023-02-04T01:01:06;101366.03;;;-2.89;100.00
41250;BME280;26984;59.928;30.306;2023-02-04T01:03:34;101370.41;;;-2.87;100.00
41250;BME280;26984;59.928;30.306;2023-02-04T01:06:01;101375.69;;;-3.00;100.00
41250;BME280;26984;59.928;30.306;2023-02-04T01:08:30;101369.16;;;-2.95;100.00
41250;BME280;26984;59.928;30.306;2023-02-04T01:10:57;101376.66;;;-3.01;100.00
41250;BME280;26984;59.928;30.306;2023-02-04T01:13:25;101381.88;;;-2.89;100.00
41250;BME280;26984;59.928;30.306;2023-02-04T01:15:52;101381.31;;;-3.05;100.00
41250;BME280;26984;59.928;30.306;2023-02-04T01:18:21;101381.41;;;-3.06;100.00
41250;BME280;26984;59.928;30.306;2023-02-04T01:20:48;101388.53;;;-2.96;100.00
41250;BME280;26984;59.928;30.306;2023-02-04T01:23:16;101397.34;;;-3.08;100.00
41250;BME280;26984;59.928;30.306;2023-02-04T01:25:45;101396.91;;;-3.02;100.00
41250;BME280;26984;59.928;30.306;2023-02-04T01:28:12;101390.41;;;-3.09;100.00
41250;BME280;26984;59.928;30.306;2023-02-04T01:30:40;101399.47;;;-3.13;100.00
41250;BME280;26984;59.928;30.306;2023-02-04T01:33:07;101382.94;;;-3.28;100.00
41250;BME280;26984;59.928;30.306;2023-02-04T01:35:35;101404.41;;;-3.21;100.00
41250;BME280;26984;59.928;30.306;2023-02-04T01:38:02;101396.94;;;-3.15;100.00
41250;BME280;26984;59.928;30.306;2023-02-04T01:40:31;101415.91;;;-3.09;100.00
41250;BME280;26984;59.928;30.306;2023-02-04T01:43:00;101413.66;;;-3.03;100.00
41250;BME280;26984;59.928;30.306;2023-02-04T01:45:27;101418.00;;;-3.02;100.00
41250;BME280;26984;59.928;30.306;2023-02-04T01:47:58;101412.88;;;-2.92;100.00
41250;BME280;26984;59.928;30.306;2023-02-04T01:50:26;101424.03;;;-3.13;100.00
41250;BME280;26984;59.928;30.306;2023-02-04T01:52:53;101422.53;;;-3.17;100.00
41250;BME280;26984;59.928;30.306;2023-02-04T01:55:23;101426.47;;;-3.09;100.00
41250;BME280;26984;59.928;30.306;2023-02-04T01:57:52;101428.97;;;-3.08;100.00
41250;BME280;26984;59.928;30.306;2023-02-04T02:00:23;101433.19;;;-3.05;100.00
41250;BME280;26984;59.928;30.306;2023-02-04T02:02:51;101429.38;;;-3.01;100.00
41250;BME280;26984;59.928;30.306;2023-02-04T02:05:20;101434.94;;;-2.93;100.00
41250;BME280;26984;59.928;30.306;2023-02-04T02:07:48;101435.56;;;-2.90;100.00
41250;BME280;26984;59.928;30.306;2023-02-04T02:10:15;101433.97;;;-2.92;100.00
41250;BME280;26984;59.928;30.306;2023-02-04T02:12:43;101440.81;;;-2.77;100.00
41250;BME280;26984;59.928;30.306;2023-02-04T02:15:12;101452.78;;;-2.97;100.00
41250;BME280;26984;59.928;30.306;2023-02-04T02:17:41;101452.69;;;-2.95;100.00
41250;BME280;26984;59.928;30.306;2023-02-04T02:20:10;101453.13;;;-3.01;100.00
41250;BME280;26984;59.928;30.306;2023-02-04T02:22:39;101461.84;;;-2.88;100.00
41250;BME280;26984;59.928;30.306;2023-02-04T02:25:10;101459.63;;;-2.94;100.00
41250;BME280;26984;59.928;30.306;2023-02-04T02:27:39;101460.13;;;-2.89;100.00
41250;BME280;26984;59.928;30.306;2023-02-04T02:30:07;101460.97;;;-2.89;100.00
41250;BME280;26984;59.928;30.306;2023-02-04T02:32:36;101464.06;;;-2.95;100.00
41250;BME280;26984;59.928;30.306;2023-02-04T02:35:04;101467.34;;;-2.91;100.00
41250;BME280;26984;59.928;30.306;2023-02-04T02:37:31;101474.06;;;-2.87;100.00
41250;BME280;26984;59.928;30.306;2023-02-04T02:39:59;101482.94;;;-3.01;100.00
41250;BME280;26984;59.928;30.306;2023-02-04T02:42:28;101481.22;;;-2.89;100.00
41250;BME280;26984;59.928;30.306;2023-02-04T02:44:56;101487.75;;;-2.82;100.00
41250;BME280;26984;59.928;30.306;2023-02-04T02:47:24;101484.19;;;-2.94;100.00
41250;BME280;26984;59.928;30.306;2023-02-04T02:49:53;101494.81;;;-2.82;100.00
41250;BME280;26984;59.928;30.306;2023-02-04T02:52:20;101494.53;;;-2.91;100.00
41250;BME280;26984;59.928;30.306;2023-02-04T02:54:48;101502.22;;;-2.87;100.00
41250;BME280;26984;59.928;30.306;2023-02-04T02:57:18;101506.56;;;-2.86;100.00
41250;BME280;26984;59.928;30.306;2023-02-04T02:59:48;101507.06;;;-2.81;100.00
41250;BME280;26984;59.928;30.306;2023-02-04T03:02:16;101511.69;;;-2.85;100.00
41250;BME280;26984;59.928;30.306;2023-02-04T03:04:48;101520.47;;;-2.84;100.00
41250;BME280;26984;59.928;30.306;2023-02-04T03:07:17;101522.66;;;-2.78;100.00
41250;BME280;26984;59.928;30.306;2023-02-04T03:09:46;101523.09;;;-2.72;100.00
41250;BME280;26984;59.928;30.306;2023-02-04T03:12:14;101523.50;;;-2.65;100.00
41250;BME280;26984;59.928;30.306;2023-02-04T03:14:42;101533.00;;;-2.62;100.00
41250;BME280;26984;59.928;30.306;2023-02-04T03:17:11;101535.28;;;-2.58;100.00
41250;BME280;26984;59.928;30.306;2023-02-04T03:19:38;101538.06;;;-2.59;100.00
41250;BME280;26984;59.928;30.306;2023-02-04T03:22:06;101548.13;;;-2.41;100.00
41250;BME280;26984;59.928;30.306;2023-02-04T03:24:34;101551.53;;;-2.51;100.00
41250;BME280;26984;59.928;30.306;2023-02-04T03:27:02;101548.47;;;-2.58;100.00
41250;BME280;26984;59.928;30.306;2023-02-04T03:29:30;101557.25;;;-2.57;100.00
41250;BME280;26984;59.928;30.306;2023-02-04T03:31:58;101564.75;;;-2.64;100.00
41250;BME280;26984;59.928;30.306;2023-02-04T03:34:27;101565.06;;;-2.69;100.00
41250;BME280;26984;59.928;30.306;2023-02-04T03:36:54;101563.97;;;-2.53;100.00
41250;BME280;26984;59.928;30.306;2023-02-04T03:39:22;101574.53;;;-2.53;100.00
41250;BME280;26984;59.928;30.306;2023-02-04T03:41:50;101584.38;;;-2.55;100.00
41250;BME280;26984;59.928;30.306;2023-02-04T03:44:17;101584.38;;;-2.55;100.00
41250;BME280;26984;59.928;30.306;2023-02-04T03:46:45;101580.97;;;-2.57;100.00
41250;BME280;26984;59.928;30.306;2023-02-04T03:49:13;101592.28;;;-2.55;100.00
41250;BME280;26984;59.928;30.306;2023-02-04T03:51:42;101590.69;;;-2.45;100.00
41250;BME280;26984;59.928;30.306;2023-02-04T03:54:09;101588.06;;;-2.45;100.00
41250;BME280;26984;59.928;30.306;2023-02-04T03:56:37;101595.50;;;-2.39;100.00
41250;BME280;26984;59.928;30.306;2023-02-04T03:59:04;101597.16;;;-2.62;100.00
41250;BME280;26984;59.928;30.306;2023-02-04T04:01:32;101614.03;;;-2.52;100.00
41250;BME280;26984;59.928;30.306;2023-02-04T04:03:59;101618.13;;;-2.60;100.00
41250;BME280;26984;59.928;30.306;2023-02-04T04:06:27;101618.47;;;-2.52;100.00
41250;BME280;26984;59.928;30.306;2023-02-04T04:08:56;101621.09;;;-2.52;100.00
41250;BME280;26984;59.928;30.306;2023-02-04T04:11:23;101625.84;;;-2.45;100.00
41250;BME280;26984;59.928;30.306;2023-02-04T04:13:50;101629.22;;;-2.68;100.00
41250;BME280;26984;59.928;30.306;2023-02-04T04:16:18;101642.94;;;-2.63;100.00
41250;BME280;26984;59.928;30.306;2023-02-04T04:18:46;101638.31;;;-2.72;100.00
41250;BME280;26984;59.928;30.306;2023-02-04T04:21:14;101641.06;;;-2.74;100.00
41250;BME280;26984;59.928;30.306;2023-02-04T04:23:41;101649.25;;;-2.78;100.00
41250;BME280;26984;59.928;30.306;2023-02-04T04:26:10;101650.44;;;-2.82;100.00
41250;BME280;26984;59.928;30.306;2023-02-04T04:28:38;101649.91;;;-2.87;100.00
41250;BME280;26984;59.928;30.306;2023-02-04T04:31:05;101636.50;;;-2.97;100.00
41250;BME280;26984;59.928;30.306;2023-02-04T04:33:32;101660.53;;;-2.89;100.00
41250;BME280;26984;59.928;30.306;2023-02-04T04:36:00;101655.19;;;-2.87;100.00
41250;BME280;26984;59.928;30.306;2023-02-04T04:38:27;101656.84;;;-2.99;100.00
41250;BME280;26984;59.928;30.306;2023-02-04T04:40:55;101665.94;;;-2.91;100.00
41250;BME280;26984;59.928;30.306;2023-02-04T04:43:24;101667.63;;;-2.90;100.00
41250;BME280;26984;59.928;30.306;2023-02-04T04:45:52;101686.59;;;-2.97;100.00
41250;BME280;26984;59.928;30.306;2023-02-04T04:48:19;101676.38;;;-2.89;100.00
41250;BME280;26984;59.928;30.306;2023-02-04T04:50:48;101678.56;;;-2.96;100.00
41250;BME280;26984;59.928;30.306;2023-02-04T04:53:15;101683.75;;;-2.94;100.00
41250;BME280;26984;59.928;30.306;2023-02-04T04:55:43;101693.75;;;-2.99;100.00
41250;BME280;26984;59.928;30.306;2023-02-04T04:58:10;101691.53;;;-3.05;100.00
41250;BME280;26984;59.928;30.306;2023-02-04T05:00:39;101695.34;;;-2.97;100.00
41250;BME280;26984;59.928;30.306;2023-02-04T05:03:07;101704.22;;;-2.98;100.00
41250;BME280;26984;59.928;30.306;2023-02-04T05:05:34;101706.22;;;-3.01;100.00
41250;BME280;26984;59.928;30.306;2023-02-04T05:08:05;101703.25;;;-2.97;100.00
41250;BME280;26984;59.928;30.306;2023-02-04T05:10:35;101709.47;;;-2.98;100.00
41250;BME280;26984;59.928;30.306;2023-02-04T05:13:03;101706.22;;;-2.89;100.00
41250;BME280;26984;59.928;30.306;2023-02-04T05:15:31;101714.63;;;-2.96;100.00
41250;BME280;26984;59.928;30.306;2023-02-04T05:17:59;101715.72;;;-2.99;100.00
41250;BME280;26984;59.928;30.306;2023-02-04T05:20:27;101725.63;;;-2.90;100.00
41250;BME280;26984;59.928;30.306;2023-02-04T05:22:54;101718.91;;;-2.81;100.00
41250;BME280;26984;59.928;30.306;2023-02-04T05:25:22;101726.38;;;-2.87;100.00
41250;BME280;26984;59.928;30.306;2023-02-04T05:27:50;101731.75;;;-2.89;100.00
41250;BME280;26984;59.928;30.306;2023-02-04T05:30:17;101734.63;;;-2.79;100.00
41250;BME280;26984;59.928;30.306;2023-02-04T05:32:45;101734.09;;;-2.84;100.00
41250;BME280;26984;59.928;30.306;2023-02-04T05:35:14;101742.31;;;-2.76;100.00
41250;BME280;26984;59.928;30.306;2023-02-04T05:37:41;101740.31;;;-2.73;100.00
41250;BME280;26984;59.928;30.306;2023-02-04T05:40:09;101746.63;;;-2.88;100.00
41250;BME280;26984;59.928;30.306;2023-02-04T05:42:37;101746.97;;;-2.80;100.00
41250;BME280;26984;59.928;30.306;2023-02-04T05:45:04;101742.00;;;-2.84;100.00
41250;BME280;26984;59.928;30.306;2023-02-04T05:47:32;101747.47;;;-2.87;100.00
41250;BME280;26984;59.928;30.306;2023-02-04T05:49:59;101755.84;;;-2.81;100.00
41250;BME280;26984;59.928;30.306;2023-02-04T05:52:28;101763.50;;;-2.78;100.00
41250;BME280;26984;59.928;30.306;2023-02-04T05:54:56;101758.34;;;-2.79;100.00
41250;BME280;26984;59.928;30.306;2023-02-04T05:57:23;101766.16;;;-2.78;100.00
41250;BME280;26984;59.928;30.306;2023-02-04T05:59:51;101774.69;;;-2.74;100.00
41250;BME280;26984;59.928;30.306;2023-02-04T06:02:18;101767.88;;;-2.64;100.00
41250;BME280;26984;59.928;30.306;2023-02-04T06:04:46;101773.06;;;-2.62;100.00
41250;BME280;26984;59.928;30.306;2023-02-04T06:07:13;101774.00;;;-2.63;100.00
41250;BME280;26984;59.928;30.306;2023-02-04T06:09:42;101779.19;;;-2.62;100.00
41250;BME280;26984;59.928;30.306;2023-02-04T06:12:09;101787.63;;;-2.57;100.00
41250;BME280;26984;59.928;30.306;2023-02-04T06:14:37;101794.94;;;-2.48;100.00
41250;BME280;26984;59.928;30.306;2023-02-04T06:17:04;101787.22;;;-2.51;100.00
41250;BME280;26984;59.928;30.306;2023-02-04T06:19:32;101787.84;;;-2.47;100.00
41250;BME280;26984;59.928;30.306;2023-02-04T06:21:59;101796.72;;;-2.48;100.00
41250;BME280;26984;59.928;30.306;2023-02-04T06:24:26;101800.84;;;-2.44;100.00
41250;BME280;26984;59.928;30.306;2023-02-04T06:26:55;101808.75;;;-2.44;100.00
41250;BME280;26984;59.928;30.306;2023-02-04T06:29:23;101808.44;;;-2.39;100.00
41250;BME280;26984;59.928;30.306;2023-02-04T06:31:50;101808.44;;;-2.39;100.00
41250;BME280;26984;59.928;30.306;2023-02-04T06:34:18;101814.47;;;-2.37;100.00
41250;BME280;26984;59.928;30.306;2023-02-04T06:36:45;101816.78;;;-2.33;100.00
41250;BME280;26984;59.928;30.306;2023-02-04T06:39:13;101821.53;;;-2.25;100.00
41250;BME280;26984;59.928;30.306;2023-02-04T06:41:40;101821.34;;;-2.22;100.00
41250;BME280;26984;59.928;30.306;2023-02-04T06:44:09;101826.75;;;-2.24;100.00
41250;BME280;26984;59.928;30.306;2023-02-04T06:46:36;101821.88;;;-2.04;100.00
41250;BME280;26984;59.928;30.306;2023-02-04T06:49:04;101828.84;;;-2.03;100.00
41250;BME280;26984;59.928;30.306;2023-02-04T06:51:31;101828.97;;;-2.05;100.00
41250;BME280;26984;59.928;30.306;2023-02-04T06:53:59;101837.84;;;-2.06;100.00
41250;BME280;26984;59.928;30.306;2023-02-04T06:56:26;101841.41;;;-2.07;100.00
41250;BME280;26984;59.928;30.306;2023-02-04T06:58:54;101848.81;;;-1.86;100.00
41250;BME280;26984;59.928;30.306;2023-02-04T07:01:23;101846.19;;;-1.86;100.00
41250;BME280;26984;59.928;30.306;2023-02-04T07:03:50;101864.16;;;-1.91;100.00
41250;BME280;26984;59.928;30.306;2023-02-04T07:06:18;101861.41;;;-2.03;100.00
41250;BME280;26984;59.928;30.306;2023-02-04T07:08:45;101864.03;;;-2.15;100.00
41250;BME280;26984;59.928;30.306;2023-02-04T07:11:14;101876.25;;;-2.14;100.00
41250;BME280;26984;59.928;30.306;2023-02-04T07:13:41;101867.94;;;-2.08;100.00
41250;BME280;26984;59.928;30.306;2023-02-04T07:16:09;101867.31;;;-1.99;100.00
41250;BME280;26984;59.928;30.306;2023-02-04T07:18:38;101867.31;;;-1.86;100.00
41250;BME280;26984;59.928;30.306;2023-02-04T07:21:05;101887.81;;;-1.90;100.00
41250;BME280;26984;59.928;30.306;2023-02-04T07:23:33;101882.75;;;-1.80;100.00
41250;BME280;26984;59.928;30.306;2023-02-04T07:26:00;101892.38;;;-1.92;100.00
41250;BME280;26984;59.928;30.306;2023-02-04T07:28:27;101891.19;;;-1.88;100.00
41250;BME280;26984;59.928;30.306;2023-02-04T07:30:56;101886.22;;;-1.93;100.00
41250;BME280;26984;59.928;30.306;2023-02-04T07:33:23;101892.88;;;-1.87;100.00
41250;BME280;26984;59.928;30.306;2023-02-04T07:35:52;101887.81;;;-1.90;100.00
41250;BME280;26984;59.928;30.306;2023-02-04T07:38:20;101896.88;;;-1.94;100.00
41250;BME280;26984;59.928;30.306;2023-02-04T07:40:47;101902.50;;;-1.86;100.00
41250;BME280;26984;59.928;30.306;2023-02-04T07:43:15;101903.78;;;-1.91;100.00
41250;BME280;26984;59.928;30.306;2023-02-04T07:45:42;101905.88;;;-1.97;100.00
41250;BME280;26984;59.928;30.306;2023-02-04T07:48:10;101907.47;;;-1.94;100.00
41250;BME280;26984;59.928;30.306;2023-02-04T07:50:37;101920.25;;;-1.88;100.00
41250;BME280;26984;59.928;30.306;2023-02-04T07:53:06;101911.66;;;-2.04;100.00
41250;BME280;26984;59.928;30.306;2023-02-04T07:55:33;101910.31;;;-1.97;100.00
41250;BME280;26984;59.928;30.306;2023-02-04T07:58:01;101914.75;;;-1.98;100.00
41250;BME280;26984;59.928;30.306;2023-02-04T08:00:29;101912.41;;;-2.02;100.00
41250;BME280;26984;59.928;30.306;2023-02-04T08:02:57;101918.00;;;-2.07;100.00
41250;BME280;26984;59.928;30.306;2023-02-04T08:05:24;101928.53;;;-2.20;100.00
41250;BME280;26984;59.928;30.306;2023-02-04T08:07:51;101934.47;;;-2.16;100.00
41250;BME280;26984;59.928;30.306;2023-02-04T08:10:20;101938.66;;;-2.13;100.00
41250;BME280;26984;59.928;30.306;2023-02-04T08:12:48;101940.66;;;-2.17;100.00
41250;BME280;26984;59.928;30.306;2023-02-04T08:15:15;101948.75;;;-2.06;100.00
41250;BME280;26984;59.928;30.306;2023-02-04T08:17:43;101945.59;;;-1.98;100.00
41250;BME280;26984;59.928;30.306;2023-02-04T08:20:10;101951.09;;;-1.76;100.00
41250;BME280;26984;59.928;30.306;2023-02-04T08:22:38;101949.97;;;-1.59;100.00
41250;BME280;26984;59.928;30.306;2023-02-04T08:25:06;101959.25;;;-1.53;100.00
41250;BME280;26984;59.928;30.306;2023-02-04T08:27:36;101952.47;;;-1.32;100.00
41250;BME280;26984;59.928;30.306;2023-02-04T08:30:03;101962.00;;;-1.16;100.00
41250;BME280;26984;59.928;30.306;2023-02-04T08:32:31;101973.00;;;-1.10;100.00
41250;BME280;26984;59.928;30.306;2023-02-04T08:34:59;101965.88;;;-0.97;100.00
41250;BME280;26984;59.928;30.306;2023-02-04T08:37:26;101975.00;;;-1.01;100.00
41250;BME280;26984;59.928;30.306;2023-02-04T08:39:56;101989.19;;;-1.02;100.00
41250;BME280;26984;59.928;30.306;2023-02-04T08:42:24;101983.25;;;-1.05;100.00
41250;BME280;26984;59.928;30.306;2023-02-04T08:44:53;101988.00;;;-1.10;100.00
41250;BME280;26984;59.928;30.306;2023-02-04T08:47:21;101986.66;;;-1.03;100.00
41250;BME280;26984;59.928;30.306;2023-02-04T08:49:48;101995.22;;;-1.00;100.00
41250;BME280;26984;59.928;30.306;2023-02-04T08:52:15;102012.03;;;-1.01;100.00
41250;BME280;26984;59.928;30.306;2023-02-04T08:54:43;102001.66;;;-0.91;100.00
41250;BME280;26984;59.928;30.306;2023-02-04T08:57:11;102003.78;;;-0.96;100.00
41250;BME280;26984;59.928;30.306;2023-02-04T08:59:39;102021.09;;;-0.79;100.00
41250;BME280;26984;59.928;30.306;2023-02-04T09:02:09;102008.94;;;-0.82;100.00
41250;BME280;26984;59.928;30.306;2023-02-04T09:04:36;102016.97;;;-0.70;100.00
41250;BME280;26984;59.928;30.306;2023-02-04T09:07:03;102021.28;;;-0.57;100.00
41250;BME280;26984;59.928;30.306;2023-02-04T09:09:31;102033.63;;;-0.44;100.00
41250;BME280;26984;59.928;30.306;2023-02-04T09:11:58;102036.16;;;-0.43;100.00
41250;BME280;26984;59.928;30.306;2023-02-04T09:14:26;102040.66;;;-0.32;100.00
41250;BME280;26984;59.928;30.306;2023-02-04T09:16:54;102048.38;;;-0.29;100.00
41250;BME280;26984;59.928;30.306;2023-02-04T09:19:23;102040.75;;;-0.21;100.00
41250;BME280;26984;59.928;30.306;2023-02-04T09:21:51;102045.88;;;-0.07;100.00
41250;BME280;26984;59.928;30.306;2023-02-04T09:24:18;102038.22;;;0.02;100.00
41250;BME280;26984;59.928;30.306;2023-02-04T09:26:48;102051.16;;;0.17;100.00
41250;BME280;26984;59.928;30.306;2023-02-04T09:29:15;102048.81;;;0.26;100.00
41250;BME280;26984;59.928;30.306;2023-02-04T09:31:43;102051.78;;;0.21;100.00
41250;BME280;26984;59.928;30.306;2023-02-04T09:34:10;102052.28;;;0.26;100.00
41250;BME280;26984;59.928;30.306;2023-02-04T09:36:39;102054.38;;;0.34;100.00
41250;BME280;26984;59.928;30.306;2023-02-04T09:39:07;102061.38;;;0.46;100.00
41250;BME280;26984;59.928;30.306;2023-02-04T09:41:35;102060.31;;;0.48;100.00
41250;BME280;26984;59.928;30.306;2023-02-04T09:44:03;102069.72;;;0.53;100.00
41250;BME280;26984;59.928;30.306;2023-02-04T09:46:31;102074.09;;;0.54;100.00
41250;BME280;26984;59.928;30.306;2023-02-04T09:48:59;102078.50;;;0.42;100.00
41250;BME280;26984;59.928;30.306;2023-02-04T09:51:28;102082.16;;;0.28;100.00
41250;BME280;26984;59.928;30.306;2023-02-04T09:54:02;102086.81;;;0.13;100.00
41250;BME280;26984;59.928;30.306;2023-02-04T09:56:32;102096.97;;;0.19;100.00
41250;BME280;26984;59.928;30.306;2023-02-04T09:58:59;102098.16;;;0.15;100.00
41250;BME280;26984;59.928;30.306;2023-02-04T10:01:26;102102.13;;;0.21;100.00
41250;BME280;26984;59.928;30.306;2023-02-04T10:03:54;102089.81;;;0.33;100.00
41250;BME280;26984;59.928;30.306;2023-02-04T10:06:25;102111.19;;;0.18;100.00
41250;BME280;26984;59.928;30.306;2023-02-04T10:08:52;102108.63;;;0.17;100.00
41250;BME280;26984;59.928;30.306;2023-02-04T10:11:22;102098.88;;;0.17;100.00
41250;BME280;26984;59.928;30.306;2023-02-04T10:13:51;102113.69;;;0.20;100.00
41250;BME280;26984;59.928;30.306;2023-02-04T10:16:20;102114.22;;;0.01;100.00
41250;BME280;26984;59.928;30.306;2023-02-04T10:18:55;102109.75;;;0.02;100.00
41250;BME280;26984;59.928;30.306;2023-02-04T10:21:26;102112.06;;;0.06;100.00
41250;BME280;26984;59.928;30.306;2023-02-04T10:23:54;102112.53;;;0.00;100.00
41250;BME280;26984;59.928;30.306;2023-02-04T10:26:24;102124.00;;;-0.12;100.00
41250;BME280;26984;59.928;30.306;2023-02-04T10:28:56;102124.91;;;-0.01;100.00
41250;BME280;26984;59.928;30.306;2023-02-04T10:31:31;102140.72;;;0.01;100.00
41250;BME280;26984;59.928;30.306;2023-02-04T10:34:03;102127.81;;;-0.16;100.00
41250;BME280;26984;59.928;30.306;2023-02-04T10:36:30;102140.72;;;-0.12;100.00
41250;BME280;26984;59.928;30.306;2023-02-04T10:38:58;102143.44;;;-0.25;100.00
41250;BME280;26984;59.928;30.306;2023-02-04T10:41:27;102138.66;;;-0.32;100.00
41250;BME280;26984;59.928;30.306;2023-02-04T10:44:02;102148.72;;;-0.37;100.00
41250;BME280;26984;59.928;30.306;2023-02-04T10:46:30;102154.94;;;-0.26;100.00
41250;BME280;26984;59.928;30.306;2023-02-04T10:48:58;102165.75;;;-0.16;100.00
41250;BME280;26984;59.928;30.306;2023-02-04T10:51:25;102158.09;;;-0.08;100.00
41250;BME280;26984;59.928;30.306;2023-02-04T10:53:53;102167.13;;;-0.10;100.00
41250;BME280;26984;59.928;30.306;2023-02-04T10:56:39;102168.47;;;-0.05;100.00
41250;BME280;26984;59.928;30.306;2023-02-04T10:59:09;102166.50;;;-0.14;100.00
41250;BME280;26984;59.928;30.306;2023-02-04T11:01:39;102173.28;;;-0.22;100.00
41250;BME280;26984;59.928;30.306;2023-02-04T11:04:08;102179.00;;;-0.29;100.00
41250;BME280;26984;59.928;30.306;2023-02-04T11:06:36;102182.94;;;-0.34;100.00
41250;BME280;26984;59.928;30.306;2023-02-04T11:09:16;102188.34;;;-0.36;100.00
41250;BME280;26984;59.928;30.306;2023-02-04T11:12:21;102199.88;;;-0.24;100.00
41250;BME280;26984;59.928;30.306;2023-02-04T11:14:55;102184.09;;;-0.13;100.00
41250;BME280;26984;59.928;30.306;2023-02-04T11:17:28;102203.34;;;-0.11;100.00
41250;BME280;26984;59.928;30.306;2023-02-04T11:19:56;102214.91;;;0.01;100.00
41250;BME280;26984;59.928;30.306;2023-02-04T11:22:35;102221.69;;;-0.08;100.00
41250;BME280;26984;59.928;30.306;2023-02-04T11:27:50;102235.38;;;-0.27;100.00
41250;BME280;26984;59.928;30.306;2023-02-04T11:30:19;102236.13;;;-0.25;100.00
41250;BME280;26984;59.928;30.306;2023-02-04T11:32:54;102234.53;;;-0.27;100.00
41250;BME280;26984;59.928;30.306;2023-02-04T11:35:23;102226.25;;;-0.22;100.00
41250;BME280;26984;59.928;30.306;2023-02-04T11:37:51;102244.88;;;-0.11;100.00
41250;BME280;26984;59.928;30.306;2023-02-04T11:40:20;102240.56;;;-0.12;100.00
41250;BME280;26984;59.928;30.306;2023-02-04T11:42:50;102234.09;;;-0.08;100.00
41250;BME280;26984;59.928;30.306;2023-02-04T11:45:46;102236.09;;;-0.12;100.00
41250;BME280;26984;59.928;30.306;2023-02-04T11:48:14;102248.16;;;-0.08;100.00
41250;BME280;26984;59.928;30.306;2023-02-04T11:50:42;102258.88;;;0.04;100.00
41250;BME280;26984;59.928;30.306;2023-02-04T11:53:10;102253.88;;;-0.01;100.00
41250;BME280;26984;59.928;30.306;2023-02-04T11:55:42;102247.31;;;-0.08;100.00
41250;BME280;26984;59.928;30.306;2023-02-04T11:58:13;102268.44;;;-0.19;100.00
41250;BME280;26984;59.928;30.306;2023-02-04T12:00:40;102269.94;;;-0.28;100.00
41250;BME280;26984;59.928;30.306;2023-02-04T12:03:18;102276.28;;;-0.31;100.00
41250;BME280;26984;59.928;30.306;2023-02-04T12:05:46;102283.16;;;-0.28;100.00
41250;BME280;26984;59.928;30.306;2023-02-04T12:08:23;102285.69;;;-0.27;100.00
41250;BME280;26984;59.928;30.306;2023-02-04T12:10:58;102291.72;;;-0.12;100.00
41250;BME280;26984;59.928;30.306;2023-02-04T12:13:27;102302.88;;;-0.07;100.00
41250;BME280;26984;59.928;30.306;2023-02-04T12:15:57;102303.28;;;-0.13;100.00
41250;BME280;26984;59.928;30.306;2023-02-04T12:18:25;102301.06;;;-0.19;100.00
41250;BME280;26984;59.928;30.306;2023-02-04T12:20:54;102307.94;;;-0.16;100.00
41250;BME280;26984;59.928;30.306;2023-02-04T12:23:21;102309.84;;;-0.18;100.00
41250;BME280;26984;59.928;30.306;2023-02-04T12:25:49;102311.25;;;-0.13;100.00
41250;BME280;26984;59.928;30.306;2023-02-04T12:28:17;102316.94;;;-0.19;100.00
41250;BME280;26984;59.928;30.306;2023-02-04T12:30:46;102317.38;;;-0.12;100.00
41250;BME280;26984;59.928;30.306;2023-02-04T12:33:13;102328.72;;;-0.10;100.00
41250;BME280;26984;59.928;30.306;2023-02-04T12:35:41;102329.88;;;-0.02;100.00
41250;BME280;26984;59.928;30.306;2023-02-04T12:38:08;102344.19;;;-0.04;100.00
41250;BME280;26984;59.928;30.306;2023-02-04T12:40:36;102340.16;;;-0.10;100.00